createdAt,value
2023-02-05T09:49:21.403Z,7.41
2023-02-05T09:51:59.893Z,7.52
2023-02-05T09:54:35.379Z,7.51
2023-02-05T09:57:18.211Z,7.97
2023-02-05T09:59:47.982Z,7.82
2023-02-05T10:02:53.461Z,7.83
2023-02-05T10:05:24.615Z,7.84
2023-02-05T10:08:36.389Z,8.13
2023-02-05T10:11:09.336Z,8.12
2023-02-05T10:13:43.162Z,8.07
2023-02-05T10:17:38.040Z,8.27
2023-02-05T10:20:41.396Z,8.53
2023-02-05T10:23:48.878Z,7.86
2023-02-05T10:26:20.841Z,7.99
2023-02-05T10:29:42.788Z,8.38
2023-02-05T10:32:29.378Z,8.07
2023-02-05T10:35:37.035Z,8.26
2023-02-05T10:38:16.090Z,8.25
2023-02-05T10:40:46.693Z,8.01
2023-02-05T10:43:40.906Z,7.95
2023-02-05T10:46:15.443Z,7.94
2023-02-05T10:49:06.715Z,8.25
2023-02-05T10:51:46.959Z,8.29
2023-02-05T10:54:31.106Z,7.96
2023-02-05T10:56:59.690Z,8.11
2023-02-05T10:59:36.354Z,7.98
2023-02-05T11:02:09.945Z,8.05
2023-02-05T11:04:54.477Z,8.13
2023-02-05T11:07:43.409Z,8.03
2023-02-05T11:10:32.382Z,7.81
2023-02-05T11:13:22.222Z,8.01
2023-02-05T11:16:08.893Z,7.86
2023-02-05T11:18:44.166Z,8.07
2023-02-05T11:21:11.962Z,7.98
2023-02-05T11:23:53.497Z,7.90
2023-02-05T11:26:28.077Z,7.69
2023-02-05T11:28:55.358Z,7.93
2023-02-05T11:36:08.105Z,7.66
2023-02-05T11:38:57.143Z,7.60
2023-02-05T11:49:05.016Z,7.14
2023-02-05T11:51:46.979Z,7.34
2023-02-05T12:00:09.381Z,7.32
2023-02-05T12:02:42.338Z,7.23
2023-02-05T12:05:31.380Z,7.45
2023-02-05T12:08:28.158Z,7.58
2023-02-05T12:12:00.716Z,7.71
2023-02-05T12:15:04.104Z,7.79
2023-02-05T12:18:52.088Z,7.85
2023-02-05T12:22:02.824Z,7.94
2023-02-05T12:25:22.033Z,8.08
2023-02-05T12:28:12.652Z,8.06
2023-02-05T12:31:12.987Z,8.03
2023-02-05T12:33:58.423Z,8.11
2023-02-05T12:37:01.817Z,7.84
2023-02-05T12:40:51.494Z,8.06
2023-02-05T12:43:42.064Z,8.06
2023-02-05T12:54:40.250Z,8.06
2023-02-05T12:57:31.689Z,7.97
2023-02-05T13:06:37.544Z,8.18
2023-02-05T13:09:25.737Z,8.45
2023-02-05T13:18:30.466Z,8.08
2023-02-05T13:21:28.876Z,8.10
2023-02-05T13:24:44.669Z,8.26
2023-02-05T13:27:54.967Z,8.33
2023-02-05T13:30:34.913Z,8.47
2023-02-05T13:33:07.461Z,8.57
2023-02-05T13:36:29.178Z,8.79
2023-02-05T13:40:10.635Z,8.84
2023-02-05T13:44:02.930Z,8.84
2023-02-05T13:47:23.326Z,8.58
2023-02-05T13:50:33.483Z,8.80
2023-02-05T13:53:35.644Z,8.87
2023-02-05T13:56:46.672Z,8.91
2023-02-05T13:59:51.791Z,8.92
2023-02-05T16:30:59.048Z,7.10
